createdAt,value
2019-01-03T00:00:59.684Z,-2.90
2019-01-03T00:03:32.830Z,-2.90
2019-01-03T00:06:03.023Z,-2.90
2019-01-03T00:08:42.383Z,-2.90
2019-01-03T00:11:12.495Z,-3.00
2019-01-03T00:13:51.851Z,-3.00
2019-01-03T00:16:22.023Z,-3.00
2019-01-03T00:18:52.086Z,-3.00
2019-01-03T00:21:28.223Z,-3.00
2019-01-03T00:24:00.969Z,-3.10
2019-01-03T00:26:53.569Z,-3.10
2019-01-03T00:29:35.992Z,-3.10
2019-01-03T00:32:22.928Z,-3.10
2019-01-03T00:34:53.068Z,-3.10
2019-01-03T00:37:23.136Z,-3.10
2019-01-03T00:39:59.287Z,-3.10
2019-01-03T00:42:32.203Z,-3.10
2019-01-03T00:45:18.619Z,-3.10
2019-01-03T00:47:51.360Z,-3.10
2019-01-03T00:50:27.203Z,-3.10
2019-01-03T00:52:57.259Z,-3.10
2019-01-03T00:55:46.416Z,-3.10
2019-01-03T00:58:33.004Z,-3.10
2019-01-03T01:01:06.123Z,-3.10
2019-01-03T01:03:52.237Z,-3.10
2019-01-03T01:06:38.625Z,-3.20
2019-01-03T01:09:08.767Z,-3.20
2019-01-03T01:11:46.343Z,-3.20
2019-01-03T01:14:32.299Z,-3.20
2019-01-03T01:17:08.428Z,-3.30
2019-01-03T01:20:06.749Z,-3.40
2019-01-03T01:22:37.098Z,-3.40
2019-01-03T01:28:26.267Z,-3.40
2019-01-03T01:30:56.370Z,-3.40
2019-01-03T01:33:32.682Z,-3.50
2019-01-03T01:36:02.919Z,-3.50
2019-01-03T01:38:33.140Z,-3.60
2019-01-03T01:41:03.341Z,-3.60
2019-01-03T01:43:42.354Z,-3.50
2019-01-03T01:46:30.330Z,-3.60
2019-01-03T01:49:16.748Z,-3.60
2019-01-03T01:51:47.936Z,-3.60
2019-01-03T01:54:27.290Z,-3.60
2019-01-03T01:57:03.505Z,-3.60
2019-01-03T01:59:33.654Z,-3.60
2019-01-03T02:02:20.146Z,-3.60
2019-01-03T02:04:52.965Z,-3.60
2019-01-03T02:07:23.084Z,-3.60
2019-01-03T02:09:59.314Z,-3.50
2019-01-03T02:12:41.410Z,-3.50
2019-01-03T02:15:20.161Z,-3.50
2019-01-03T02:18:06.303Z,-3.40
2019-01-03T02:23:42.248Z,-3.50
2019-01-03T02:26:14.761Z,-3.60
2019-01-03T02:29:00.865Z,-3.60
2019-01-03T02:31:41.254Z,-3.70
2019-01-03T02:34:27.641Z,-3.70
2019-01-03T02:37:00.843Z,-3.70
2019-01-03T02:39:50.256Z,-3.70
2019-01-03T02:42:20.445Z,-3.80
2019-01-03T02:44:50.542Z,-3.80
2019-01-03T02:47:37.250Z,-3.80
2019-01-03T02:50:07.976Z,-3.80
2019-01-03T02:52:46.994Z,-3.90
2019-01-03T02:55:19.795Z,-3.90
2019-01-03T02:58:04.496Z,-3.90
2019-01-03T03:00:43.529Z,-3.90
2019-01-03T03:03:22.657Z,-3.90
2019-01-03T03:06:01.892Z,-4.00
2019-01-03T03:08:37.812Z,-3.90
2019-01-03T03:11:24.451Z,-3.90
2019-01-03T03:13:57.426Z,-3.90
2019-01-03T03:16:28.750Z,-4.00
2019-01-03T03:19:01.542Z,-3.90
2019-01-03T03:21:33.849Z,-4.00
2019-01-03T03:24:20.222Z,-4.00
2019-01-03T03:26:50.604Z,-4.00
2019-01-03T03:29:36.623Z,-4.00
2019-01-03T03:32:24.946Z,-4.00
2019-01-03T03:34:58.084Z,-4.00
2019-01-03T03:37:34.172Z,-4.00
2019-01-03T03:42:58.184Z,-4.00
2019-01-03T03:45:32.251Z,-4.00
2019-01-03T03:48:05.513Z,-3.90
2019-01-03T03:50:40.306Z,-3.90
2019-01-03T03:53:19.381Z,-3.80
2019-01-03T03:55:53.628Z,-3.90
2019-01-03T03:58:29.522Z,-3.90
2019-01-03T04:04:18.311Z,-4.00
2019-01-03T04:07:00.673Z,-4.00
2019-01-03T04:09:33.472Z,-4.00
2019-01-03T04:12:08.946Z,-4.00
2019-01-03T04:14:45.802Z,-3.90
2019-01-03T04:17:24.889Z,-4.00
2019-01-03T04:20:01.394Z,-3.90
2019-01-03T04:22:31.596Z,-3.90
2019-01-03T04:25:07.798Z,-4.00
2019-01-03T04:27:48.056Z,-4.00
2019-01-03T04:30:29.940Z,-4.00
2019-01-03T04:33:12.325Z,-4.00
2019-01-03T04:35:58.771Z,-3.90
2019-01-03T04:38:41.064Z,-3.80
2019-01-03T04:41:20.133Z,-3.80
2019-01-03T04:43:52.938Z,-3.90
2019-01-03T04:46:35.099Z,-4.00
2019-01-03T04:49:29.523Z,-4.10
2019-01-03T04:52:11.883Z,-4.10
2019-01-03T04:54:45.034Z,-4.20
2019-01-03T04:57:27.416Z,-4.30
2019-01-03T05:00:06.241Z,-4.30
2019-01-03T05:02:36.657Z,-4.30
2019-01-03T05:05:14.116Z,-4.40
2019-01-03T05:07:54.229Z,-4.40
2019-01-03T05:10:24.420Z,-4.40
2019-01-03T05:13:00.740Z,-4.40
2019-01-03T05:15:42.736Z,-4.30
2019-01-03T05:18:40.361Z,-4.30
2019-01-03T05:21:20.491Z,-4.30
2019-01-03T05:23:57.710Z,-4.40
2019-01-03T05:26:35.459Z,-4.30
2019-01-03T05:29:22.062Z,-4.40
2019-01-03T05:31:52.553Z,-4.30
2019-01-03T05:34:28.368Z,-4.40
2019-01-03T05:37:10.603Z,-4.40
2019-01-03T05:39:40.670Z,-4.50
2019-01-03T05:42:22.796Z,-4.60
2019-01-03T05:44:58.459Z,-4.50
2019-01-03T05:47:31.491Z,-4.60
2019-01-03T05:50:17.830Z,-4.60
2019-01-03T05:53:06.442Z,-4.60
2019-01-03T05:55:42.327Z,-4.60
2019-01-03T05:58:18.321Z,-4.50
2019-01-03T06:00:54.019Z,-4.50
2019-01-03T06:03:24.169Z,-4.50
2019-01-03T06:06:10.722Z,-4.50
2019-01-03T06:08:46.949Z,-4.40
2019-01-03T06:11:32.396Z,-4.50
2019-01-03T06:14:02.780Z,-4.50
2019-01-03T06:16:35.994Z,-4.40
2019-01-03T06:19:06.147Z,-4.40
2019-01-03T06:21:51.385Z,-4.40
2019-01-03T06:24:37.996Z,-4.40
2019-01-03T06:27:14.263Z,-4.40
2019-01-03T06:29:44.350Z,-4.30
2019-01-03T06:32:17.167Z,-4.30
2019-01-03T06:35:03.444Z,-4.30
2019-01-03T06:37:33.589Z,-4.30
2019-01-03T06:40:09.443Z,-4.20
2019-01-03T06:42:42.226Z,-4.20
2019-01-03T06:45:28.526Z,-4.20
2019-01-03T06:48:08.100Z,-4.20
2019-01-03T06:50:40.941Z,-4.20
2019-01-03T06:53:20.162Z,-4.10
2019-01-03T06:55:50.231Z,-4.00
2019-01-03T06:58:26.041Z,-4.00
2019-01-03T07:00:58.599Z,-3.90
2019-01-03T07:03:44.504Z,-3.90
2019-01-03T07:06:31.063Z,-3.80
2019-01-03T07:09:17.657Z,-3.70
2019-01-03T07:11:47.720Z,-3.60
2019-01-03T07:14:34.408Z,-3.50
2019-01-03T07:17:04.683Z,-3.50
2019-01-03T07:19:48.405Z,-3.40
2019-01-03T07:22:24.577Z,-3.30
2019-01-03T07:25:11.132Z,-3.20
2019-01-03T07:28:01.055Z,-3.10
2019-01-03T07:30:33.222Z,-3.10
2019-01-03T07:33:18.791Z,-3.00
2019-01-03T07:35:48.863Z,-2.90
2019-01-03T07:38:25.591Z,-2.90
2019-01-03T07:40:58.731Z,-2.80
2019-01-03T07:43:45.285Z,-2.80
2019-01-03T07:46:19.099Z,-2.80
2019-01-03T07:49:05.331Z,-2.80
2019-01-03T07:51:36.601Z,-2.70
2019-01-03T07:54:18.744Z,-2.60
2019-01-03T07:57:05.338Z,-2.60
2019-01-03T07:59:36.428Z,-2.60
2019-01-03T08:02:06.541Z,-2.60
2019-01-03T08:04:45.527Z,-2.50
2019-01-03T08:07:41.077Z,-2.50
2019-01-03T08:10:26.588Z,-2.40
2019-01-03T08:12:59.431Z,-2.30
2019-01-03T08:15:32.402Z,-2.30
2019-01-03T08:18:18.785Z,-2.20
2019-01-03T08:21:05.156Z,-2.20
2019-01-03T08:23:38.530Z,-2.00
2019-01-03T08:26:17.607Z,-1.90
2019-01-03T08:28:50.593Z,-1.90
2019-01-03T08:31:29.492Z,-1.80
2019-01-03T08:34:08.796Z,-1.70
2019-01-03T08:36:39.166Z,-1.50
2019-01-03T08:39:27.581Z,-1.40
2019-01-03T08:42:14.009Z,-1.40
2019-01-03T08:44:49.674Z,-1.20
2019-01-03T08:47:36.705Z,-1.20
2019-01-03T08:50:25.990Z,-1.10
2019-01-03T08:53:12.199Z,-1.10
2019-01-03T08:55:51.279Z,-1.00
2019-01-03T08:58:37.632Z,-0.90
2019-01-03T09:01:21.659Z,-0.90
2019-01-03T09:04:09.847Z,-0.90
2019-01-03T09:06:56.259Z,-0.80
2019-01-03T09:09:32.451Z,-0.80
2019-01-03T09:12:08.235Z,-0.90
2019-01-03T09:14:41.335Z,-0.80
2019-01-03T09:17:27.783Z,-0.70
2019-01-03T09:20:12.850Z,-0.70
2019-01-03T09:22:54.702Z,-0.60
2019-01-03T09:25:25.691Z,-0.60
2019-01-03T09:27:55.827Z,-0.60
2019-01-03T09:30:41.823Z,-0.50
2019-01-03T09:33:28.246Z,-0.40
2019-01-03T09:36:10.339Z,-0.40
2019-01-03T09:38:56.896Z,-0.40
2019-01-03T09:41:33.032Z,-0.30
2019-01-03T09:44:09.612Z,-0.30
2019-01-03T09:46:38.150Z,-0.20
2019-01-03T09:49:06.593Z,-0.20
2019-01-03T09:51:35.141Z,-0.20
2019-01-03T09:54:03.707Z,-0.10
2019-01-03T09:56:34.253Z,-0.20
2019-01-03T09:59:02.734Z,-0.10
2019-01-03T10:01:32.189Z,-0.10
2019-01-03T10:04:00.578Z,-0.10
2019-01-03T10:06:29.004Z,-0.10
2019-01-03T10:08:57.514Z,0.00
2019-01-03T10:11:27.292Z,0.10
2019-01-03T10:13:55.726Z,0.10
2019-01-03T10:16:24.232Z,0.10
2019-01-03T10:18:52.708Z,0.20
2019-01-03T10:21:21.365Z,0.20
2019-01-03T10:23:49.924Z,0.30
2019-01-03T10:26:19.384Z,0.30
2019-01-03T10:28:47.812Z,0.40
2019-01-03T10:31:16.229Z,0.50
2019-01-03T10:33:44.819Z,0.60
2019-01-03T10:36:13.245Z,0.60
2019-01-03T10:38:41.692Z,0.60
2019-01-03T10:41:10.123Z,0.60
2019-01-03T10:43:38.552Z,0.70
2019-01-03T10:46:07.055Z,0.80
2019-01-03T10:48:35.509Z,0.80
2019-01-03T10:51:06.639Z,0.80
2019-01-03T10:53:35.102Z,0.90
2019-01-03T10:56:04.546Z,0.90
2019-01-03T10:58:33.069Z,1.00
2019-01-03T11:01:01.641Z,1.00
2019-01-03T11:03:30.061Z,1.00
2019-01-03T11:05:58.472Z,1.00
2019-01-03T11:08:26.946Z,1.10
2019-01-03T11:10:55.372Z,1.00
2019-01-03T11:13:23.828Z,1.10
2019-01-03T11:15:53.425Z,1.10
2019-01-03T11:18:23.903Z,1.20
2019-01-03T11:20:52.336Z,1.20
2019-01-03T11:23:20.780Z,1.20
2019-01-03T11:25:49.187Z,1.20
2019-01-03T11:28:17.600Z,1.20
2019-01-03T11:30:46.040Z,1.30
2019-01-03T11:33:14.447Z,1.40
2019-01-03T11:35:42.876Z,1.40
2019-01-03T11:38:11.292Z,1.50
2019-01-03T11:40:39.733Z,1.50
2019-01-03T11:43:08.165Z,1.50
2019-01-03T11:45:36.624Z,1.60
2019-01-03T11:48:05.027Z,1.70
2019-01-03T11:50:33.498Z,1.70
2019-01-03T11:53:01.988Z,1.80
2019-01-03T11:55:30.415Z,1.80
2019-01-03T11:57:58.830Z,1.80
2019-01-03T12:00:27.290Z,1.70
2019-01-03T12:02:55.779Z,1.70
2019-01-03T12:05:25.647Z,1.80
2019-01-03T12:07:54.123Z,1.80
2019-01-03T12:10:22.579Z,1.80
2019-01-03T12:12:51.279Z,1.90
2019-01-03T12:15:19.716Z,1.90
2019-01-03T12:17:48.118Z,1.90
2019-01-03T12:20:16.551Z,1.80
2019-01-03T12:22:44.955Z,1.90
2019-01-03T12:25:13.406Z,1.90
2019-01-03T12:27:42.932Z,1.90
2019-01-03T12:30:11.371Z,2.00
2019-01-03T12:32:39.796Z,1.90
2019-01-03T12:35:08.641Z,2.00
2019-01-03T12:37:37.069Z,2.10
2019-01-03T12:40:06.977Z,2.10
2019-01-03T12:42:35.412Z,2.10
2019-01-03T12:45:06.607Z,2.20
2019-01-03T12:47:35.020Z,2.30
2019-01-03T12:50:05.233Z,2.40
2019-01-03T12:52:33.770Z,2.40
2019-01-03T12:55:03.870Z,2.40
2019-01-03T12:57:32.279Z,2.40
2019-01-03T13:00:00.734Z,2.40
2019-01-03T13:02:29.164Z,2.40
2019-01-03T13:04:57.593Z,2.40
2019-01-03T13:07:26.091Z,2.40
2019-01-03T13:09:55.309Z,2.20
2019-01-03T13:12:23.778Z,2.20
2019-01-03T13:14:52.260Z,2.20
2019-01-03T13:17:21.147Z,2.20
2019-01-03T13:19:49.556Z,2.20
2019-01-03T13:22:17.988Z,2.30
2019-01-03T13:24:46.415Z,2.30
2019-01-03T13:27:14.902Z,2.40
2019-01-03T13:29:43.341Z,2.40
2019-01-03T13:32:11.935Z,2.40
2019-01-03T13:34:40.378Z,2.50
2019-01-03T13:37:09.710Z,2.50
2019-01-03T13:39:38.200Z,2.50
2019-01-03T13:42:06.671Z,2.50
2019-01-03T13:44:35.160Z,2.50
2019-01-03T13:47:04.999Z,2.50
2019-01-03T13:49:33.478Z,2.50
2019-01-03T13:52:03.184Z,2.60
2019-01-03T13:54:34.138Z,2.60
2019-01-03T13:57:03.182Z,2.60
2019-01-03T13:59:33.770Z,2.60
2019-01-03T14:02:02.381Z,2.60
2019-01-03T14:04:30.801Z,2.60
2019-01-03T14:06:59.316Z,2.60
2019-01-03T14:09:27.805Z,2.60
2019-01-03T14:11:56.574Z,2.70
2019-01-03T14:14:25.019Z,2.60
2019-01-03T14:16:53.610Z,2.60
2019-01-03T14:19:22.070Z,2.60
2019-01-03T14:21:50.514Z,2.60
2019-01-03T14:24:18.936Z,2.50
2019-01-03T14:26:47.384Z,2.50
2019-01-03T14:29:15.810Z,2.50
2019-01-03T14:31:45.853Z,2.50
2019-01-03T14:34:14.413Z,2.60
2019-01-03T14:36:44.035Z,2.50
2019-01-03T14:39:12.522Z,2.60
2019-01-03T14:41:42.534Z,2.60
2019-01-03T14:44:10.982Z,2.60
2019-01-03T14:46:39.435Z,2.60
2019-01-03T14:49:07.898Z,2.60
2019-01-03T14:51:36.438Z,2.60
2019-01-03T14:54:04.956Z,2.60
2019-01-03T14:56:33.816Z,2.60
2019-01-03T14:59:03.806Z,2.70
2019-01-03T15:01:32.982Z,2.60
2019-01-03T15:04:01.698Z,2.60
2019-01-03T15:06:30.268Z,2.70
2019-01-03T15:08:58.760Z,2.60
2019-01-03T15:11:27.300Z,2.60
2019-01-03T15:13:55.759Z,2.50
2019-01-03T15:16:24.514Z,2.40
2019-01-03T15:18:53.494Z,2.40
2019-01-03T15:21:25.096Z,2.30
2019-01-03T15:23:53.630Z,2.40
2019-01-03T15:26:23.635Z,2.40
2019-01-03T15:28:52.517Z,2.40
2019-01-03T15:31:22.054Z,2.40
2019-01-03T15:33:50.505Z,2.40
2019-01-03T15:36:19.130Z,2.40
2019-01-03T15:38:47.600Z,2.40
2019-01-03T15:41:18.719Z,2.40
2019-01-03T15:43:47.179Z,2.40
2019-01-03T15:46:15.584Z,2.40
2019-01-03T15:48:44.019Z,2.30
2019-01-03T15:51:12.457Z,2.30
2019-01-03T15:53:40.901Z,2.30
2019-01-03T15:56:10.224Z,2.20
2019-01-03T15:58:38.647Z,2.20
2019-01-03T16:01:07.729Z,2.20
2019-01-03T16:03:36.172Z,2.20
2019-01-03T16:06:04.865Z,2.20
2019-01-03T16:08:34.080Z,2.20
2019-01-03T16:11:02.553Z,2.10
2019-01-03T16:13:31.212Z,2.10
2019-01-03T16:15:59.656Z,2.00
2019-01-03T16:18:28.067Z,2.00
2019-01-03T16:20:56.486Z,2.00
2019-01-03T16:23:24.934Z,2.00
2019-01-03T16:25:53.380Z,2.00
2019-01-03T16:28:24.110Z,1.90
2019-01-03T16:30:52.556Z,1.90
2019-01-03T16:33:21.052Z,1.90
2019-01-03T16:35:49.705Z,1.90
2019-01-03T16:38:19.083Z,1.80
2019-01-03T16:40:47.511Z,1.80
2019-01-03T16:43:15.972Z,1.70
2019-01-03T16:45:44.395Z,1.60
2019-01-03T16:48:12.812Z,1.60
2019-01-03T16:50:41.231Z,1.60
2019-01-03T16:53:09.635Z,1.60
2019-01-03T16:55:38.073Z,1.60
2019-01-03T16:58:06.509Z,1.60
2019-01-03T17:00:34.955Z,1.60
2019-01-03T17:03:03.393Z,1.60
2019-01-03T17:05:32.400Z,1.60
2019-01-03T17:08:00.845Z,1.50
2019-01-03T17:10:30.520Z,1.50
2019-01-03T17:12:58.940Z,1.50
2019-01-03T17:15:27.368Z,1.50
2019-01-03T17:17:55.777Z,1.50
2019-01-03T17:20:24.199Z,1.50
2019-01-03T17:22:52.627Z,1.50
2019-01-03T17:25:22.199Z,1.40
2019-01-03T17:27:50.619Z,1.40
2019-01-03T17:30:19.040Z,1.40
2019-01-03T17:32:47.451Z,1.40
2019-01-03T17:35:15.948Z,1.30
2019-01-03T17:37:44.591Z,1.30
2019-01-03T17:40:13.265Z,1.30
2019-01-03T17:42:41.770Z,1.30
2019-01-03T17:45:11.120Z,1.30
2019-01-03T17:47:39.631Z,1.20
2019-01-03T17:50:11.914Z,1.20
2019-01-03T17:52:40.411Z,1.20
2019-01-03T17:55:08.998Z,1.20
2019-01-03T17:57:37.521Z,1.10
2019-01-03T18:00:09.230Z,1.10
2019-01-03T18:02:37.704Z,1.10
2019-01-03T18:05:06.357Z,1.20
2019-01-03T18:07:34.859Z,1.10
2019-01-03T18:10:04.250Z,1.10
2019-01-03T18:12:32.709Z,1.20
2019-01-03T18:15:01.283Z,1.20
2019-01-03T18:17:29.699Z,1.20
2019-01-03T18:19:58.121Z,1.10
2019-01-03T18:22:26.551Z,1.10
2019-01-03T18:24:55.050Z,1.10
2019-01-03T18:27:23.504Z,1.10
2019-01-03T18:29:51.937Z,1.10
2019-01-03T18:32:20.391Z,1.00
2019-01-03T18:34:48.825Z,1.00
2019-01-03T18:37:17.352Z,1.10
2019-01-03T18:39:47.831Z,1.10
2019-01-03T18:42:16.289Z,1.00
2019-01-03T18:44:44.760Z,1.00
2019-01-03T18:47:13.202Z,1.00
2019-01-03T18:49:41.625Z,0.90
2019-01-03T18:52:10.044Z,0.90
2019-01-03T18:54:38.491Z,1.00
2019-01-03T18:57:06.929Z,1.00
2019-01-03T18:59:35.384Z,1.00
2019-01-03T19:02:03.881Z,0.90
2019-01-03T19:04:32.347Z,0.90
2019-01-03T19:07:00.890Z,0.90
2019-01-03T19:09:29.388Z,1.00
2019-01-03T19:11:57.857Z,1.00
2019-01-03T19:14:26.408Z,1.00
2019-01-03T19:16:56.369Z,1.00
2019-01-03T19:19:24.835Z,1.00
2019-01-03T19:21:56.020Z,1.00
2019-01-03T19:24:24.634Z,1.00
2019-01-03T19:26:53.161Z,1.00
2019-01-03T19:29:21.681Z,1.00
2019-01-03T19:31:51.562Z,1.00
2019-01-03T19:34:20.081Z,0.90
2019-01-03T19:36:51.100Z,0.90
2019-01-03T19:39:19.589Z,0.90
2019-01-03T19:41:48.030Z,0.90
2019-01-03T19:44:16.688Z,1.00
2019-01-03T19:46:45.957Z,0.90
2019-01-03T19:49:14.441Z,1.00
2019-01-03T19:51:42.934Z,1.00
2019-01-03T19:54:11.391Z,1.00
2019-01-03T19:56:40.973Z,1.00
2019-01-03T19:59:09.430Z,1.10
2019-01-03T20:01:38.454Z,1.00
2019-01-03T20:04:06.888Z,1.10
2019-01-03T20:06:35.367Z,1.10
2019-01-03T20:09:04.554Z,1.10
2019-01-03T20:11:33.012Z,1.10
2019-01-03T20:14:01.494Z,1.10
2019-01-03T20:16:29.966Z,1.10
2019-01-03T20:18:58.547Z,1.10
2019-01-03T20:21:26.981Z,1.10
2019-01-03T20:23:55.429Z,1.20
2019-01-03T20:26:25.413Z,1.20
2019-01-03T20:28:53.823Z,1.20
2019-01-03T20:31:22.263Z,1.20
2019-01-03T20:33:51.776Z,1.20
2019-01-03T20:36:23.153Z,1.20
2019-01-03T20:38:51.623Z,1.10
2019-01-03T20:41:20.797Z,1.10
2019-01-03T20:43:49.215Z,1.00
2019-01-03T20:46:23.578Z,1.00
2019-01-03T20:48:52.032Z,1.00
2019-01-03T20:51:20.493Z,1.00
2019-01-03T20:53:48.956Z,1.10
2019-01-03T20:56:18.485Z,1.10
2019-01-03T20:58:46.928Z,1.10
2019-01-03T21:01:28.736Z,1.10
2019-01-03T21:03:57.282Z,1.10
2019-01-03T21:06:25.769Z,1.10
2019-01-03T21:08:54.206Z,1.10
2019-01-03T21:11:22.697Z,1.10
2019-01-03T21:13:51.128Z,1.10
2019-01-03T21:16:22.618Z,1.00
2019-01-03T21:18:51.092Z,1.00
2019-01-03T21:21:21.149Z,1.00
2019-01-03T21:23:49.726Z,1.00
2019-01-03T21:26:21.351Z,1.00
2019-01-03T21:28:49.878Z,1.10
2019-01-03T21:31:18.462Z,1.10
2019-01-03T21:33:46.987Z,1.10
2019-01-03T21:36:16.757Z,1.20
2019-01-03T21:38:45.534Z,1.20
2019-01-03T21:41:14.054Z,1.20
2019-01-03T21:43:42.621Z,1.10
2019-01-03T21:46:11.150Z,1.10
2019-01-03T21:48:39.702Z,1.10
2019-01-03T21:51:10.361Z,1.10
2019-01-03T21:53:39.057Z,1.10
2019-01-03T21:56:07.586Z,1.10
2019-01-03T21:58:36.277Z,1.10
2019-01-03T22:01:07.667Z,1.10
2019-01-03T22:03:36.707Z,1.10
2019-01-03T22:06:05.362Z,1.10
2019-01-03T22:08:37.284Z,1.10
2019-01-03T22:11:09.214Z,1.10
2019-01-03T22:13:37.960Z,1.20
2019-01-03T22:16:06.770Z,1.20
2019-01-03T22:18:35.340Z,1.20
2019-01-03T22:21:07.795Z,1.20
2019-01-03T22:23:37.549Z,1.10
2019-01-03T22:26:06.870Z,1.10
2019-01-03T22:28:35.522Z,1.20
2019-01-03T22:31:07.750Z,1.10
2019-01-03T22:33:36.650Z,1.10
2019-01-03T22:36:05.636Z,1.10
2019-01-03T22:38:34.250Z,1.10
2019-01-03T22:41:03.167Z,1.10
2019-01-03T22:43:34.531Z,1.10
2019-01-03T22:46:06.427Z,1.10
2019-01-03T22:48:35.696Z,1.10
2019-01-03T22:51:04.835Z,1.10
2019-01-03T22:53:34.786Z,1.20
2019-01-03T22:56:06.419Z,1.20
2019-01-03T22:58:34.955Z,1.20
2019-01-03T23:01:05.170Z,1.20
2019-01-03T23:03:34.053Z,1.20
2019-01-03T23:06:12.764Z,1.20
2019-01-03T23:08:43.061Z,1.20
2019-01-03T23:11:11.510Z,1.20
2019-01-03T23:13:39.919Z,1.20
2019-01-03T23:16:08.756Z,1.10
2019-01-03T23:18:37.211Z,1.10
2019-01-03T23:21:05.663Z,1.10
2019-01-03T23:23:34.103Z,1.10
2019-01-03T23:26:05.851Z,1.00
2019-01-03T23:28:34.310Z,1.00
2019-01-03T23:31:02.772Z,0.90
2019-01-03T23:33:31.213Z,0.90
2019-01-03T23:35:59.741Z,0.80
2019-01-03T23:38:28.138Z,0.80
2019-01-03T23:40:56.566Z,0.70
2019-01-03T23:43:26.105Z,0.70
2019-01-03T23:45:55.138Z,0.60
2019-01-03T23:48:23.684Z,0.60
2019-01-03T23:50:52.138Z,0.70
2019-01-03T23:53:20.579Z,0.70
2019-01-03T23:55:51.624Z,0.70
2019-01-03T23:58:20.061Z,0.80
